createdAt,value
2022-12-13T00:01:28.779Z,9.38
2022-12-13T00:03:58.217Z,7.55
2022-12-13T00:06:25.405Z,9.25
2022-12-13T00:08:53.608Z,7.22
2022-12-13T00:11:20.818Z,7.95
2022-12-13T00:13:48.161Z,9.82
2022-12-13T00:16:24.276Z,9.73
2022-12-13T00:18:57.321Z,7.78
2022-12-13T00:21:29.338Z,8.60
2022-12-13T00:23:57.476Z,9.57
2022-12-13T00:26:29.755Z,8.63
2022-12-13T00:28:58.876Z,12.13
2022-12-13T00:34:12.823Z,7.18
2022-12-13T00:36:40.189Z,8.65
2022-12-13T00:39:07.054Z,8.05
2022-12-13T00:41:36.300Z,7.38
2022-12-13T00:44:05.179Z,6.28
2022-12-13T00:46:32.836Z,8.45
2022-12-13T00:49:01.667Z,8.57
2022-12-13T00:51:31.333Z,8.98
2022-12-13T00:53:59.409Z,9.38
2022-12-13T00:56:30.406Z,9.50
2022-12-13T00:58:58.180Z,8.75
2022-12-13T01:01:28.761Z,8.98
2022-12-13T01:03:59.013Z,9.07
2022-12-13T01:06:34.173Z,9.40
2022-12-13T01:09:01.857Z,9.30
2022-12-13T01:11:28.828Z,8.85
2022-12-13T01:13:55.635Z,6.63
2022-12-13T01:16:22.502Z,8.27
2022-12-13T01:18:49.384Z,9.43
2022-12-13T01:21:20.311Z,8.35
2022-12-13T01:23:49.534Z,9.48
2022-12-13T01:26:20.263Z,8.32
2022-12-13T01:28:48.194Z,8.00
2022-12-13T01:31:19.287Z,8.85
2022-12-13T01:33:46.322Z,9.05
2022-12-13T01:36:19.810Z,7.97
2022-12-13T01:38:59.318Z,8.43
2022-12-13T01:41:28.667Z,7.43
2022-12-13T01:44:03.404Z,8.45
2022-12-13T01:46:36.252Z,8.43
2022-12-13T01:52:03.859Z,7.05
2022-12-13T01:54:37.026Z,5.50
2022-12-13T01:57:07.890Z,5.95
2022-12-13T01:59:37.886Z,6.90
2022-12-13T02:02:06.074Z,6.85
2022-12-13T02:05:20.974Z,4.05
2022-12-13T02:07:48.760Z,8.10
2022-12-13T02:10:15.707Z,8.07
2022-12-13T02:12:42.989Z,8.68
2022-12-13T02:15:18.705Z,8.60
2022-12-13T02:18:35.550Z,8.43
2022-12-13T02:21:16.076Z,7.50
2022-12-13T02:24:26.314Z,7.72
2022-12-13T02:27:12.070Z,6.25
2022-12-13T02:30:19.471Z,7.13
2022-12-13T02:33:25.386Z,7.55
2022-12-13T02:36:08.572Z,6.00
2022-12-13T02:38:57.001Z,7.88
2022-12-13T02:41:41.551Z,6.32
2022-12-13T02:44:22.417Z,6.57
2022-12-13T02:46:59.308Z,6.88
2022-12-13T02:49:31.387Z,4.88
2022-12-13T02:52:00.475Z,4.85
2022-12-13T02:54:27.407Z,6.80
2022-12-13T02:56:59.271Z,8.07
2022-12-13T02:59:35.078Z,7.50
2022-12-13T03:02:41.902Z,8.70
2022-12-13T03:05:58.646Z,8.10
2022-12-13T03:08:48.842Z,7.88
2022-12-13T03:11:18.887Z,6.70
2022-12-13T03:13:58.192Z,8.43
2022-12-13T03:16:40.238Z,8.73
2022-12-13T03:19:10.858Z,8.73
2022-12-13T03:21:48.986Z,9.43
2022-12-13T03:24:21.562Z,8.32
2022-12-13T03:29:24.373Z,7.50
2022-12-13T03:31:53.283Z,8.05
2022-12-13T03:34:22.344Z,9.45
2022-12-13T03:36:51.325Z,6.20
2022-12-13T03:39:18.288Z,9.82
2022-12-13T03:41:45.233Z,10.48
2022-12-13T03:44:12.231Z,9.63
2022-12-13T03:46:39.115Z,10.65
2022-12-13T03:49:05.932Z,8.93
2022-12-13T03:51:32.857Z,9.27
2022-12-13T03:53:59.643Z,9.68
2022-12-13T03:56:26.491Z,10.15
2022-12-13T03:58:54.099Z,9.50
2022-12-13T04:01:22.222Z,9.45
2022-12-13T04:03:49.187Z,8.77
2022-12-13T04:06:21.892Z,8.95
2022-12-13T04:08:50.922Z,9.63
2022-12-13T04:11:42.475Z,9.50
2022-12-13T04:14:11.879Z,7.17
2022-12-13T04:16:39.248Z,8.18
2022-12-13T04:19:06.043Z,6.07
2022-12-13T04:21:32.895Z,8.38
2022-12-13T04:24:01.028Z,7.32
2022-12-13T04:26:28.673Z,6.80
2022-12-13T04:28:56.087Z,7.65
2022-12-13T04:31:23.501Z,8.07
2022-12-13T04:33:51.254Z,8.38
2022-12-13T04:36:31.643Z,7.50
2022-12-13T04:39:22.036Z,7.38
2022-12-13T04:41:53.778Z,7.25
2022-12-13T04:44:28.672Z,7.35
2022-12-13T04:47:00.718Z,7.53
2022-12-13T04:49:29.780Z,7.72
2022-12-13T04:52:01.188Z,7.40
2022-12-13T04:54:36.231Z,8.73
2022-12-13T04:57:06.494Z,8.10
2022-12-13T04:59:33.379Z,9.38
2022-12-13T05:02:00.229Z,8.77
2022-12-13T05:04:32.238Z,9.20
2022-12-13T05:07:00.619Z,9.00
2022-12-13T05:09:27.475Z,9.27
2022-12-13T05:12:01.270Z,9.35
2022-12-13T05:14:32.931Z,10.10
2022-12-13T05:17:01.185Z,6.93
2022-12-13T05:19:30.672Z,10.32
2022-12-13T05:22:01.825Z,9.95
2022-12-13T05:24:30.648Z,9.63
2022-12-13T05:26:58.650Z,10.23
2022-12-13T05:29:27.501Z,9.15
2022-12-13T05:31:54.526Z,8.90
2022-12-13T05:34:21.447Z,9.90
2022-12-13T05:36:48.246Z,10.65
2022-12-13T05:39:28.889Z,9.88
2022-12-13T05:42:02.007Z,11.80
2022-12-13T05:44:31.335Z,12.75
2022-12-13T05:46:59.063Z,12.95
2022-12-13T05:49:29.039Z,10.15
2022-12-13T05:51:55.848Z,10.20
2022-12-13T05:54:23.137Z,10.32
2022-12-13T05:59:30.455Z,11.00
2022-12-13T06:01:57.281Z,10.60
2022-12-13T06:04:24.120Z,8.35
2022-12-13T06:06:52.446Z,8.93
2022-12-13T06:09:20.665Z,9.27
2022-12-13T06:11:48.685Z,9.90
2022-12-13T06:14:22.828Z,11.25
2022-12-13T06:16:51.954Z,10.07
2022-12-13T06:19:20.908Z,10.65
2022-12-13T06:21:48.096Z,10.13
2022-12-13T06:24:16.429Z,9.70
2022-12-13T06:26:45.388Z,9.45
2022-12-13T06:29:23.393Z,9.05
2022-12-13T06:31:54.864Z,7.65
2022-12-13T06:34:32.250Z,10.18
2022-12-13T06:36:59.147Z,10.43
2022-12-13T06:39:32.674Z,9.52
2022-12-13T06:42:07.904Z,10.23
2022-12-13T06:44:35.460Z,10.95
2022-12-13T06:47:10.144Z,16.17
2022-12-13T06:49:42.059Z,16.63
2022-12-13T06:52:12.555Z,14.05
2022-12-13T06:54:39.484Z,17.83
2022-12-13T06:57:06.320Z,17.17
2022-12-13T06:59:33.132Z,15.43
2022-12-13T07:02:03.789Z,16.08
2022-12-13T07:04:32.413Z,14.13
2022-12-13T07:07:01.416Z,17.33
2022-12-13T07:09:31.070Z,12.98
2022-12-13T07:11:58.785Z,15.70
2022-12-13T07:14:26.099Z,14.98
2022-12-13T07:16:56.628Z,12.57
2022-12-13T07:19:28.193Z,14.38
2022-12-13T07:22:05.579Z,14.32
2022-12-13T07:24:32.928Z,12.88
2022-12-13T07:26:59.685Z,10.95
2022-12-13T07:29:26.455Z,10.80
2022-12-13T07:31:53.668Z,12.88
2022-12-13T07:34:28.007Z,11.23
2022-12-13T07:36:54.846Z,12.43
2022-12-13T07:39:25.903Z,11.55
2022-12-13T07:41:56.303Z,10.80
2022-12-13T07:44:24.462Z,11.05
2022-12-13T07:46:51.417Z,12.15
2022-12-13T07:49:18.712Z,11.85
2022-12-13T07:51:45.519Z,7.57
2022-12-13T07:54:12.343Z,12.10
2022-12-13T07:56:39.122Z,10.27
2022-12-13T07:59:05.987Z,10.27
2022-12-13T08:01:36.405Z,13.40
2022-12-13T08:04:04.901Z,17.40
2022-12-13T08:06:37.315Z,14.13
2022-12-13T08:09:05.828Z,15.65
2022-12-13T08:11:33.002Z,13.75
2022-12-13T08:13:59.868Z,14.30
2022-12-13T08:16:29.347Z,12.18
2022-12-13T08:19:01.071Z,11.38
2022-12-13T08:24:28.156Z,11.32
2022-12-13T08:27:03.826Z,11.93
2022-12-13T08:29:35.637Z,11.43
2022-12-13T08:32:07.171Z,13.32
2022-12-13T08:34:34.004Z,12.13
2022-12-13T08:37:01.642Z,11.32
2022-12-13T08:39:38.387Z,12.27
2022-12-13T08:42:14.901Z,13.15
2022-12-13T08:44:45.793Z,12.23
2022-12-13T08:47:13.421Z,11.48
2022-12-13T08:50:02.318Z,9.23
2022-12-13T08:52:31.365Z,10.55
2022-12-13T08:54:58.262Z,10.95
2022-12-13T08:57:25.187Z,11.20
2022-12-13T08:59:52.011Z,11.68
2022-12-13T09:02:18.917Z,11.18
2022-12-13T09:04:46.040Z,10.32
2022-12-13T09:07:13.145Z,11.55
2022-12-13T09:09:39.996Z,11.27
2022-12-13T09:12:10.716Z,11.13
2022-12-13T09:14:53.885Z,11.70
2022-12-13T09:17:36.529Z,11.52
2022-12-13T09:20:10.170Z,12.20
2022-12-13T09:22:54.393Z,14.18
2022-12-13T09:25:37.285Z,14.80
2022-12-13T09:28:08.925Z,13.95
2022-12-13T09:30:37.940Z,13.85
2022-12-13T09:33:28.372Z,13.35
2022-12-13T09:35:52.760Z,11.98
2022-12-13T09:38:19.998Z,12.90
2022-12-13T09:40:49.370Z,11.85
2022-12-13T09:43:31.927Z,12.55
2022-12-13T09:46:22.377Z,13.77
2022-12-13T09:49:01.147Z,14.73
2022-12-13T09:51:43.076Z,12.43
2022-12-13T09:54:26.749Z,13.27
2022-12-13T09:56:56.722Z,14.20
2022-12-13T09:59:34.889Z,12.77
2022-12-13T10:02:17.331Z,13.77
2022-12-13T10:04:44.694Z,11.02
2022-12-13T10:07:21.486Z,15.98
2022-12-13T10:09:50.236Z,15.65
2022-12-13T10:12:17.807Z,15.10
2022-12-13T10:14:59.531Z,15.40
2022-12-13T10:17:38.190Z,13.50
2022-12-13T10:20:07.887Z,13.43
2022-12-13T10:22:34.699Z,12.98
2022-12-13T10:25:05.119Z,13.40
2022-12-13T10:27:47.044Z,15.32
2022-12-13T10:30:23.131Z,14.95
2022-12-13T10:33:03.622Z,13.90
2022-12-13T10:35:40.928Z,16.58
2022-12-13T10:38:07.665Z,16.33
2022-12-13T10:40:38.764Z,15.07
2022-12-13T10:43:17.353Z,14.57
2022-12-13T10:46:00.459Z,25.92
2022-12-13T10:48:40.088Z,24.05
2022-12-13T10:51:17.744Z,16.92
2022-12-13T10:53:56.911Z,15.88
2022-12-13T10:57:00.001Z,15.05
2022-12-13T10:59:36.833Z,15.80
2022-12-13T11:02:41.622Z,16.25
2022-12-13T11:05:29.558Z,16.08
2022-12-13T11:08:15.342Z,16.58
2022-12-13T11:10:42.932Z,14.00
2022-12-13T11:13:27.573Z,28.08
2022-12-13T11:15:56.750Z,14.00
2022-12-13T11:18:26.214Z,16.85
2022-12-13T11:21:03.874Z,13.15
2022-12-13T11:23:43.613Z,13.98
2022-12-13T11:26:24.513Z,13.45
2022-12-13T11:28:58.842Z,15.30
2022-12-13T11:31:44.091Z,19.50
2022-12-13T11:34:35.682Z,13.65
2022-12-13T11:37:30.302Z,11.98
2022-12-13T11:40:15.606Z,12.10
2022-12-13T11:42:53.626Z,12.50
2022-12-13T11:45:36.215Z,10.65
2022-12-13T11:48:10.685Z,12.73
2022-12-13T11:50:42.337Z,12.43
2022-12-13T11:53:46.359Z,13.48
2022-12-13T11:56:31.689Z,13.30
2022-12-13T11:59:30.659Z,13.65
2022-12-13T12:02:40.400Z,19.00
2022-12-13T12:05:38.275Z,18.42
2022-12-13T12:08:31.881Z,15.43
2022-12-13T12:11:35.896Z,13.07
2022-12-13T12:14:22.102Z,16.23
2022-12-13T12:16:55.500Z,14.10
2022-12-13T12:19:39.231Z,14.15
2022-12-13T12:22:50.910Z,15.30
2022-12-13T12:25:52.355Z,14.13
2022-12-13T12:29:01.423Z,14.45
2022-12-13T12:31:41.137Z,15.23
2022-12-13T12:34:53.863Z,15.60
2022-12-13T12:37:54.290Z,9.25
2022-12-13T12:41:17.936Z,13.07
2022-12-13T12:43:50.380Z,13.40
2022-12-13T12:47:09.929Z,13.07
2022-12-13T12:50:34.410Z,12.95
2022-12-13T12:53:23.929Z,12.70
2022-12-13T12:56:02.540Z,12.02
2022-12-13T12:58:51.248Z,11.25
2022-12-13T13:01:43.689Z,10.75
2022-12-13T13:04:14.273Z,8.57
2022-12-13T13:07:22.392Z,12.50
2022-12-13T13:09:55.004Z,13.45
2022-12-13T13:12:30.175Z,16.83
2022-12-13T13:14:58.407Z,13.75
2022-12-13T13:17:25.151Z,13.15
2022-12-13T13:20:17.492Z,13.57
2022-12-13T13:22:53.732Z,15.20
2022-12-13T13:25:35.176Z,11.90
2022-12-13T13:28:19.290Z,14.00
2022-12-13T13:31:10.404Z,13.63
2022-12-13T13:33:49.925Z,13.57
2022-12-13T13:36:41.744Z,14.85
2022-12-13T13:39:37.691Z,14.52
2022-12-13T13:42:29.999Z,14.38
2022-12-13T13:45:17.191Z,12.10
2022-12-13T13:48:14.314Z,14.02
2022-12-13T13:51:04.811Z,13.25
2022-12-13T13:54:13.482Z,15.15
2022-12-13T13:57:13.966Z,14.48
2022-12-13T14:00:18.103Z,18.52
2022-12-13T14:03:22.435Z,21.45
2022-12-13T14:06:52.422Z,24.17
2022-12-13T14:09:43.982Z,15.88
2022-12-13T14:12:29.482Z,18.60
2022-12-13T14:15:21.104Z,17.55
2022-12-13T14:18:24.980Z,17.45
2022-12-13T14:21:43.356Z,16.67
2022-12-13T14:24:40.711Z,15.93
2022-12-13T14:27:15.812Z,16.65
2022-12-13T14:29:48.506Z,17.05
2022-12-13T14:32:30.594Z,11.87
2022-12-13T14:34:58.634Z,16.98
2022-12-13T14:37:34.631Z,17.58
2022-12-13T14:40:12.443Z,14.55
2022-12-13T14:42:41.754Z,17.08
2022-12-13T14:45:31.125Z,17.45
2022-12-13T14:50:44.757Z,17.05
2022-12-13T14:53:33.270Z,16.35
2022-12-13T14:56:28.024Z,16.58
2022-12-13T14:58:58.669Z,17.85
2022-12-13T15:01:32.155Z,16.77
2022-12-13T15:04:21.109Z,17.90
2022-12-13T15:07:02.919Z,17.55
2022-12-13T15:09:31.266Z,16.33
2022-12-13T15:12:14.853Z,16.58
2022-12-13T15:14:53.594Z,19.35
2022-12-13T15:17:49.825Z,20.27
2022-12-13T15:20:32.342Z,20.20
2022-12-13T15:23:03.536Z,21.27
2022-12-13T15:25:34.281Z,21.10
2022-12-13T15:28:01.067Z,30.45
2022-12-13T15:30:32.106Z,23.25
2022-12-13T15:33:03.595Z,17.35
2022-12-13T15:35:30.583Z,23.40
2022-12-13T15:37:57.519Z,21.00
2022-12-13T15:40:25.185Z,23.17
2022-12-13T15:42:52.175Z,19.15
2022-12-13T15:45:29.176Z,21.50
2022-12-13T15:48:00.219Z,20.13
2022-12-13T15:50:45.329Z,19.05
2022-12-13T15:53:34.290Z,20.50
2022-12-13T15:56:07.835Z,20.73
2022-12-13T15:58:37.442Z,23.25
2022-12-13T16:01:07.494Z,20.15
2022-12-13T16:03:44.004Z,20.30
2022-12-13T16:06:18.328Z,21.55
2022-12-13T16:08:49.386Z,22.10
2022-12-13T16:11:31.174Z,23.15
2022-12-13T16:14:37.974Z,21.52
2022-12-13T16:17:25.017Z,24.92
2022-12-13T16:19:54.487Z,24.33
2022-12-13T16:22:23.806Z,24.27
2022-12-13T16:24:56.318Z,21.83
2022-12-13T16:27:23.238Z,24.77
2022-12-13T16:29:50.066Z,24.13
2022-12-13T16:32:16.942Z,22.25
2022-12-13T16:34:43.752Z,19.00
2022-12-13T16:37:26.804Z,22.20
2022-12-13T16:39:54.802Z,18.92
2022-12-13T16:42:26.438Z,19.50
2022-12-13T16:45:17.907Z,19.58
2022-12-13T16:47:48.312Z,19.65
2022-12-13T16:50:20.157Z,20.92
2022-12-13T16:52:48.460Z,17.00
2022-12-13T16:55:15.597Z,22.17
2022-12-13T16:57:42.378Z,20.95
2022-12-13T17:00:12.926Z,22.65
2022-12-13T17:02:39.798Z,21.10
2022-12-13T17:05:07.072Z,26.67
2022-12-13T17:07:35.448Z,22.95
2022-12-13T17:10:02.690Z,25.40
2022-12-13T17:12:29.719Z,21.77
2022-12-13T17:14:56.784Z,52.63
2022-12-13T17:17:23.687Z,28.88
2022-12-13T17:19:50.572Z,28.67
2022-12-13T17:22:17.438Z,24.00
2022-12-13T17:24:44.763Z,24.40
2022-12-13T17:27:12.004Z,19.30
2022-12-13T17:29:38.866Z,21.02
2022-12-13T17:32:05.786Z,22.30
2022-12-13T17:34:32.767Z,20.50
2022-12-13T17:36:59.655Z,23.38
2022-12-13T17:39:26.517Z,21.75
2022-12-13T17:41:55.310Z,22.88
2022-12-13T17:44:26.142Z,21.95
2022-12-13T17:46:54.753Z,25.58
2022-12-13T17:49:23.023Z,25.15
2022-12-13T17:51:52.668Z,23.05
2022-12-13T17:54:24.203Z,25.05
2022-12-13T17:56:52.979Z,27.98
2022-12-13T17:59:20.469Z,31.27
2022-12-13T18:01:47.909Z,25.83
2022-12-13T18:04:15.679Z,22.45
2022-12-13T18:06:42.964Z,25.88
2022-12-13T18:09:11.960Z,22.77
2022-12-13T18:11:39.680Z,24.73
2022-12-13T18:14:08.383Z,32.15
2022-12-13T18:16:38.457Z,27.08
2022-12-13T18:19:08.426Z,19.25
2022-12-13T18:21:36.611Z,22.58
2022-12-13T18:24:05.225Z,18.77
2022-12-13T18:26:32.042Z,21.35
2022-12-13T18:28:58.876Z,22.20
2022-12-13T18:31:26.081Z,19.25
2022-12-13T18:33:54.091Z,25.88
2022-12-13T18:36:24.059Z,24.13
2022-12-13T18:38:51.389Z,22.45
2022-12-13T18:41:28.166Z,23.55
2022-12-13T18:44:04.587Z,24.17
2022-12-13T18:46:35.221Z,24.77
2022-12-13T18:49:02.902Z,21.35
2022-12-13T18:51:29.889Z,24.42
2022-12-13T18:53:56.892Z,24.15
2022-12-13T18:56:24.399Z,25.05
2022-12-13T18:58:52.331Z,23.83
2022-12-13T19:01:20.590Z,22.80
2022-12-13T19:03:48.724Z,23.20
2022-12-13T19:06:19.181Z,22.95
2022-12-13T19:08:51.631Z,24.20
2022-12-13T19:11:20.093Z,21.58
2022-12-13T19:13:47.822Z,22.80
2022-12-13T19:16:18.297Z,22.67
2022-12-13T19:18:45.680Z,18.88
2022-12-13T19:21:17.274Z,25.83
2022-12-13T19:23:47.304Z,23.73
2022-12-13T19:28:44.879Z,16.85
2022-12-13T19:31:14.283Z,22.30
2022-12-13T19:33:42.704Z,22.80
2022-12-13T19:36:11.310Z,18.38
2022-12-13T19:38:41.892Z,18.08
2022-12-13T19:41:12.190Z,23.35
2022-12-13T19:43:39.041Z,22.05
2022-12-13T19:46:06.181Z,18.73
2022-12-13T19:48:34.299Z,21.70
2022-12-13T19:51:04.328Z,21.35
2022-12-13T19:53:32.449Z,20.98
2022-12-13T19:55:59.747Z,21.25
2022-12-13T19:58:27.163Z,21.73
2022-12-13T20:01:02.080Z,25.55
2022-12-13T20:03:33.667Z,20.17
2022-12-13T20:06:02.521Z,23.38
2022-12-13T20:08:29.822Z,23.70
2022-12-13T20:11:13.253Z,24.67
2022-12-13T20:13:40.900Z,27.35
2022-12-13T20:16:08.275Z,25.83
2022-12-13T20:18:35.142Z,25.30
2022-12-13T20:21:13.594Z,21.13
2022-12-13T20:23:49.513Z,22.27
2022-12-13T20:26:31.658Z,23.42
2022-12-13T20:28:59.217Z,22.35
2022-12-13T20:31:33.173Z,21.02
2022-12-13T20:34:06.658Z,21.30
2022-12-13T20:36:33.508Z,24.38
2022-12-13T20:39:02.972Z,20.92
2022-12-13T20:41:33.370Z,18.98
2022-12-13T20:44:01.872Z,24.40
2022-12-13T20:46:30.546Z,24.45
2022-12-13T20:49:00.132Z,25.02
2022-12-13T20:51:29.506Z,27.02
2022-12-13T20:53:56.928Z,20.85
2022-12-13T20:56:32.660Z,19.63
2022-12-13T20:58:59.472Z,20.88
2022-12-13T21:01:30.572Z,20.90
2022-12-13T21:04:00.739Z,21.67
2022-12-13T21:06:29.656Z,17.65
2022-12-13T21:09:02.709Z,29.70
2022-12-13T21:11:46.815Z,22.13
2022-12-13T21:14:25.215Z,21.08
2022-12-13T21:17:00.183Z,20.02
2022-12-13T21:19:39.988Z,17.80
2022-12-13T21:22:07.767Z,18.42
2022-12-13T21:24:34.626Z,17.02
2022-12-13T21:27:01.521Z,20.48
2022-12-13T21:29:28.493Z,20.27
2022-12-13T21:31:56.133Z,17.95
2022-12-13T21:34:23.552Z,20.10
2022-12-13T21:36:52.461Z,19.55
2022-12-13T21:39:23.244Z,20.13
2022-12-13T21:41:50.955Z,18.60
2022-12-13T21:44:19.475Z,18.58
2022-12-13T21:47:11.298Z,19.63
2022-12-13T21:49:34.088Z,19.08
2022-12-13T21:52:00.915Z,18.45
2022-12-13T21:54:29.440Z,19.17
2022-12-13T21:57:14.607Z,18.70
2022-12-13T21:59:41.464Z,19.70
2022-12-13T22:02:16.818Z,21.83
2022-12-13T22:04:50.765Z,20.15
2022-12-13T22:07:18.564Z,20.25
2022-12-13T22:09:46.274Z,20.95
2022-12-13T22:12:22.014Z,23.20
2022-12-13T22:14:49.709Z,20.42
2022-12-13T22:17:17.736Z,19.58
2022-12-13T22:19:48.552Z,18.48
2022-12-13T22:22:20.994Z,19.75
2022-12-13T22:24:53.691Z,22.00
2022-12-13T22:27:25.444Z,19.58
2022-12-13T22:29:57.727Z,17.23
2022-12-13T22:32:27.170Z,17.00
2022-12-13T22:34:54.654Z,21.08
2022-12-13T22:37:21.970Z,18.30
2022-12-13T22:39:48.832Z,18.23
2022-12-13T22:42:15.815Z,17.95
2022-12-13T22:44:42.954Z,17.98
2022-12-13T22:47:09.774Z,16.63
2022-12-13T22:49:36.668Z,18.38
2022-12-13T22:52:03.631Z,18.90
2022-12-13T22:54:30.434Z,17.60
2022-12-13T22:56:58.734Z,17.90
2022-12-13T22:59:25.772Z,16.00
2022-12-13T23:01:56.651Z,17.58
2022-12-13T23:04:28.527Z,18.00
2022-12-13T23:06:55.401Z,16.35
2022-12-13T23:09:22.987Z,16.65
2022-12-13T23:12:08.571Z,15.43
2022-12-13T23:14:38.598Z,14.95
2022-12-13T23:17:05.827Z,17.38
2022-12-13T23:19:50.661Z,16.33
2022-12-13T23:22:25.646Z,15.23
2022-12-13T23:24:53.346Z,19.75
2022-12-13T23:27:23.349Z,21.85
2022-12-13T23:29:50.830Z,18.33
2022-12-13T23:32:17.856Z,17.35
2022-12-13T23:34:46.074Z,15.10
2022-12-13T23:37:13.126Z,16.30
2022-12-13T23:39:40.860Z,14.75
2022-12-13T23:42:10.871Z,15.85
2022-12-13T23:44:40.167Z,15.23
2022-12-13T23:47:08.057Z,16.73
2022-12-13T23:49:34.994Z,16.17
2022-12-13T23:52:19.149Z,15.65
2022-12-13T23:54:46.951Z,16.88
2022-12-13T23:57:13.834Z,16.17
2022-12-13T23:59:41.024Z,16.05
